San Clemente, CA

11:28 AM PDT on September 17, 2014 (GMT -0700)
Coastal T-Street Area | Change Station
CLOSE
Current Station
Personal Weather Station
Location: San Clemente, CA
Elevation: 220 ft
Nearby Weather Stations
Active Advisory: Beach Hazard Statement Active Notice: Record Report

Elev 220 ft 33.42 °N, 117.61 °W | Updated 30 seconds ago

Clear
Clear
93.0 °F
Feels Like 89 °F
N
4.9
Wind Variable Wind from WSW
Gusts 5.4 mph

Today
High -- | Low -- °F
--% Chance of Precip.
Yesterday
High -- | Low -- °F
Precip. -- in
6:35 AM 6:53 PM
Waning Crescent, 34% visible
Pressure 29.74 in
Visibility 7.0 miles
Clouds Few 7000 ft
Heat Index 89 °F
Dew Point 43 °F
Humidity 18%
Rainfall 0.00 in
Snow Depth 0 in , 0 in , 1 in
UV 7 out of 12
Pollen 5.10 out of 12
Ozone Good
Flu Activity Not available.
METAR KNFG 171754Z 25008KT 7SM FEW070 35/17 A2974 RMK AO2 SLP070 T03500172 50001 $

More Conditions Fewer Conditions

Pressure 29.74 in
Visibility 7.0 miles
Clouds Few 7000 ft
Heat Index 89 °F
Dew Point 43 °F
Humidity 18%
Rainfall 0.00 in
Snow Depth 0 in , 0 in , 1 in
UV 7 out of 12
Pollen 5.10 out of 12
Ozone Good
Flu Activity Not available.
METAR KNFG 171754Z 25008KT 7SM FEW070 35/17 A2974 RMK AO2 SLP070 T03500172 50001 $

More Conditions Fewer Conditions

10-Day Weather Forecast

Almanac

Astronomy

Sep. 17, 2014 Rise Set
Actual Time 6:35 AM PDT 6:53 PM PDT
Civil Twilight 6:10 AM PDT 7:18 PM PDT
Nautical Twilight 5:41 AM PDT 7:47 PM PDT
Astronomical Twilight 5:11 AM PDT 8:17 PM PDT
Moon 12:51 AM PDT 2:55 PM PDT
Length of Visible Light 13h 08m
Length of Day
12h 18m
Tomorrow will be 2m 4s shorter.
Waning Crescent, 34% of the Moon is Illuminated
Today
Waning Crescent
Sep 24
New
Oct 1
First Quarter
Oct 8
Full
Oct 15
Last Quarter

Today's Extremes

State Highs State Lows

Community

WunderPhotos

Upload Photos

1,754,123 photos uploaded!

WunderBlogs® & News

Nearby

Air Quality

  Air Quality AQ Index Pollutant
Yesterday Good
OZONE
Current Good
OZONE
Wednesday Good
PM10
Wednesday Good
OZONE
Wednesday Good
CO
Wednesday Good
NO2

Snow Depth

Station Depth Elevation
Adin Mountain 0 in 6200 ft
Leavitt Lake 0 in 9400 ft
Summit Meadow 1 in 9122 ft
Spratt Creek 0 in 6200 ft
Tahoe City Cross 0 in 6750 ft

Earthquake Activity

City Distance Mag. Time & Date
La Quinta, California 67 miles 2.7 8:59 PM PDT
2014-09-15
Minimum magnitude displayed is 2.5.

Coastal Water Temperatures

Place Temperature
Santa Monica Pier 73.0 °F
Los Angeles, CA 69.1 °F
La Jolla, CA 66.9 °F

Nearby Weather Stations